Time;durP1;ratioP1;P1;durP2;ratioP2;P2;SDS_P1;SDS_P2;PMS_P1;PMS_P2;Temp;Humidity;BMP_temperature;BMP_pressure;BME280_temperature;BME280_humidity;BME280_pressure;Samples;Min_cycle;Max_cycle;Signal;HPM_P1;HPM_P2
2023/10/14 00:01:28;;;;;;;0.68;0.10;;;;;;;10.76;59.98;99735.22;4931206;28;20079;-67
2023/10/14 00:03:55;;;;;;;4.03;0.45;;;;;;;10.68;60.19;99737.41;4916998;28;20047;-67
2023/10/14 00:06:22;;;;;;;2.60;0.10;;;;;;;10.70;60.57;99748.63;4929241;28;20300;-66
2023/10/14 00:08:48;;;;;;;5.80;0.17;;;;;;;10.69;60.61;99765.25;4889830;28;20047;-66
2023/10/14 00:11:15;;;;;;;2.40;0.17;;;;;;;10.75;60.63;99764.88;4914022;28;20490;-67
2023/10/14 00:13:48;;;;;;;8.60;0.22;;;;;;;10.63;60.92;99767.28;4933514;28;20070;-66
2023/10/14 00:18:58;;;;;;;2.05;0.40;;;;;;;10.63;61.35;99761.22;4934340;28;20073;-71
2023/10/14 00:21:27;;;;;;;2.50;0.10;;;;;;;10.68;61.28;99766.16;4916527;28;20223;-72
2023/10/14 00:23:56;;;;;;;3.20;0.10;;;;;;;10.75;61.00;99778.81;4933089;28;20510;-71
2023/10/14 00:26:24;;;;;;;3.72;0.20;;;;;;;10.61;61.73;99778.75;4917405;28;20294;-71
2023/10/14 00:28:54;;;;;;;6.60;0.37;;;;;;;10.22;62.42;99775.69;4919074;28;20035;-70
2023/10/14 00:31:24;;;;;;;2.20;0.20;;;;;;;10.70;61.35;99772.97;4917207;28;20451;-70
2023/10/14 00:33:52;;;;;;;2.85;0.28;;;;;;;10.74;61.01;99771.03;4918669;28;20035;-70
2023/10/14 00:36:22;;;;;;;4.65;0.10;;;;;;;10.60;61.69;99774.47;4913928;28;20110;-68
2023/10/14 00:38:55;;;;;;;3.65;0.55;;;;;;;10.76;60.93;99779.63;4918048;28;20039;-69
2023/10/14 00:41:27;;;;;;;3.78;0.22;;;;;;;10.66;61.31;99789.78;4931257;28;20109;-69
2023/10/14 00:43:53;;;;;;;3.38;0.40;;;;;;;10.71;60.81;99786.91;4920589;28;20035;-69
2023/10/14 00:46:22;;;;;;;6.57;1.10;;;;;;;10.62;61.46;99778.66;4912312;28;20114;-71
2023/10/14 00:48:50;;;;;;;1.90;0.10;;;;;;;10.73;60.91;99798.97;4916300;28;20062;-68
2023/10/14 00:51:19;;;;;;;5.35;0.30;;;;;;;10.14;62.41;99808.38;4912443;28;20118;-66
2023/10/14 00:53:52;;;;;;;5.38;0.20;;;;;;;10.07;62.29;99807.88;4907223;28;20071;-67
2023/10/14 00:56:19;;;;;;;3.85;0.20;;;;;;;10.33;61.36;99816.91;4921079;28;20035;-66
2023/10/14 00:58:50;;;;;;;3.25;0.10;;;;;;;10.09;61.98;99816.47;4917294;28;20038;-68
2023/10/14 01:01:17;;;;;;;5.80;0.37;;;;;;;9.96;62.46;99818.91;4916537;28;20458;-67
2023/10/14 01:03:43;;;;;;;4.40;0.35;;;;;;;9.89;62.43;99819.34;4919680;28;20111;-69
2023/10/14 01:06:21;;;;;;;6.18;0.73;;;;;;;10.19;61.72;99822.03;4913444;28;20502;-69
2023/10/14 01:08:52;;;;;;;3.17;0.20;;;;;;;10.06;61.36;99826.22;4918883;28;20027;-70
2023/10/14 01:11:20;;;;;;;3.63;0.10;;;;;;;10.09;60.95;99826.09;4917596;28;20466;-70
2023/10/14 01:13:46;;;;;;;3.28;0.25;;;;;;;9.95;61.56;99829.44;4921377;28;20039;-70
2023/10/14 01:16:12;;;;;;;6.10;0.20;;;;;;;10.08;61.00;99835.69;4921270;28;20034;-70
2023/10/14 01:18:44;;;;;;;3.22;0.20;;;;;;;9.94;61.60;99833.81;4921363;28;20039;-70
2023/10/14 01:21:09;;;;;;;;;;;;;;;9.75;61.91;99840.91;4934055;28;20046;-68
2023/10/14 01:23:36;;;;;;;4.00;0.10;;;;;;;9.96;61.13;99846.78;4927699;28;19918;-68
2023/10/14 01:26:04;;;;;;;3.10;0.20;;;;;;;10.07;61.03;99847.03;4919055;28;20036;-67
2023/10/14 01:28:30;;;;;;;2.28;0.20;;;;;;;9.85;61.38;99857.78;4928136;28;20059;-68
2023/10/14 01:33:51;;;;;;;4.22;0.40;;;;;;;9.92;60.39;99860.91;4922156;28;20047;-68
2023/10/14 01:36:16;;;;;;;3.90;0.20;;;;;;;9.80;60.59;99875.47;4933890;28;20023;-68
2023/10/14 01:38:50;;;;;;;3.03;0.68;;;;;;;9.67;60.48;99877.84;4918329;28;20032;-67
2023/10/14 01:41:16;;;;;;;1.45;0.35;;;;;;;9.61;59.98;99883.41;4923532;28;20537;-70
2023/10/14 01:43:41;;;;;;;9.10;0.40;;;;;;;9.49;59.13;99890.06;4919648;28;20035;-67
2023/10/14 01:46:10;;;;;;;2.80;0.55;;;;;;;9.43;58.51;99894.75;4917527;28;20123;-66
2023/10/14 01:48:38;;;;;;;5.63;0.30;;;;;;;9.46;57.82;99899.84;4935089;28;20039;-67
2023/10/14 01:51:05;;;;;;;13.48;1.52;;;;;;;9.35;57.33;99902.97;4926644;28;20039;-67
2023/10/14 01:53:36;;;;;;;6.88;0.73;;;;;;;9.21;57.05;99903.66;4924888;28;20106;-67
2023/10/14 01:56:02;;;;;;;7.90;0.83;;;;;;;9.28;56.00;99907.66;4917949;28;20054;-68
2023/10/14 01:58:32;;;;;;;13.30;0.80;;;;;;;9.23;55.44;99909.66;4917541;28;20067;-67
2023/10/14 02:03:50;;;;;;;10.65;0.60;;;;;;;9.15;55.65;99904.81;4919483;28;20454;-68
2023/10/14 02:06:19;;;;;;;3.90;0.60;;;;;;;9.19;55.32;99915.94;4916696;28;20142;-67
2023/10/14 02:08:52;;;;;;;9.07;0.50;;;;;;;9.33;55.20;99923.91;4921008;28;20071;-68
2023/10/14 02:11:21;;;;;;;11.00;0.80;;;;;;;9.30;55.45;99918.84;4914620;28;20035;-67
2023/10/14 02:13:50;;;;;;;5.45;1.35;;;;;;;9.23;55.47;99935.72;4927284;28;20415;-67
2023/10/14 02:16:15;;;;;;;7.40;0.68;;;;;;;9.09;55.62;99938.97;4930133;28;20066;-70
2023/10/14 02:18:42;;;;;;;5.95;0.30;;;;;;;9.03;55.20;99935.84;4919310;28;20035;-69
2023/10/14 02:21:11;;;;;;;4.38;0.30;;;;;;;9.02;55.55;99955.00;4917314;28;20054;-70
2023/10/14 02:23:49;;;;;;;8.30;0.52;;;;;;;8.94;55.50;99951.03;4928544;28;20036;-71
2023/10/14 02:26:26;;;;;;;7.57;0.40;;;;;;;8.83;56.04;99960.25;4931037;28;20051;-70
2023/10/14 02:28:54;;;;;;;3.42;0.30;;;;;;;8.77;55.95;99957.00;4917762;28;20675;-66
2023/10/14 02:31:35;;;;;;;8.07;0.95;;;;;;;8.68;56.05;99959.19;4923162;28;20462;-67
2023/10/14 02:34:08;;;;;;;6.07;0.90;;;;;;;8.60;56.00;99962.13;4919135;28;20039;-67
2023/10/14 02:37:01;;;;;;;8.00;0.80;;;;;;;8.52;56.01;99956.44;4921120;28;20101;-66
2023/10/14 02:39:27;;;;;;;13.32;1.05;;;;;;;8.56;56.10;99966.66;4918333;28;20101;-69
2023/10/14 02:42:00;;;;;;;3.55;0.65;;;;;;;8.25;56.59;99971.53;4918749;28;20028;-68
2023/10/14 02:44:32;;;;;;;12.65;0.88;;;;;;;8.43;56.39;99975.94;4915981;28;20110;-68
2023/10/14 02:47:05;;;;;;;8.90;0.60;;;;;;;8.58;55.90;99971.78;4917431;28;20289;-68
2023/10/14 02:49:39;;;;;;;4.53;0.98;;;;;;;8.65;55.76;99985.34;4899713;28;20461;-68
2023/10/14 02:52:10;;;;;;;5.53;1.55;;;;;;;8.13;56.37;99988.56;4920547;28;20043;-68
2023/10/14 02:54:40;;;;;;;9.77;0.85;;;;;;;8.51;55.41;99989.44;4921282;28;20067;-68
2023/10/14 02:57:23;;;;;;;7.10;0.50;;;;;;;8.42;55.40;99994.22;4921162;28;20694;-69
2023/10/14 02:59:55;;;;;;;4.25;0.55;;;;;;;8.42;54.96;100000.28;4922634;28;20055;-69
2023/10/14 03:07:31;;;;;;;5.53;0.98;;;;;;;8.22;54.91;100018.53;4927955;28;20039;-69
2023/10/14 03:10:20;;;;;;;6.00;0.32;;;;;;;8.26;54.78;100028.75;4917053;28;20043;-69
2023/10/14 03:12:49;;;;;;;5.13;0.57;;;;;;;8.39;54.45;100020.41;4905785;28;20057;-69
2023/10/14 03:15:19;;;;;;;3.30;0.32;;;;;;;7.83;55.91;100027.16;4916229;28;20042;-70
2023/10/14 03:17:55;;;;;;;8.70;0.45;;;;;;;8.35;54.99;100040.53;4916628;28;20513;-71
2023/10/14 03:26:13;;;;;;;10.50;0.75;;;;;;;8.19;55.54;100049.94;4922249;28;20055;-71
2023/10/14 03:28:40;;;;;;;;;;;;;;;8.24;55.41;100060.97;4934943;28;20170;-71
2023/10/14 03:31:09;;;;;;;10.32;0.65;;;;;;;8.27;55.68;100073.84;4905545;28;19930;-71
2023/10/14 03:33:43;;;;;;;6.25;0.75;;;;;;;8.42;55.43;100077.56;4919742;28;20406;-71
2023/10/14 03:36:15;;;;;;;12.38;0.55;;;;;;;8.49;55.18;100087.63;4915594;28;20085;-71
2023/10/14 03:38:41;;;;;;;2.95;0.20;;;;;;;8.24;56.01;100084.41;4918476;28;20126;-71
2023/10/14 03:41:18;;;;;;;14.43;0.45;;;;;;;8.13;55.94;100096.09;4931080;28;20161;-71
2023/10/14 03:48:58;;;;;;;5.43;0.60;;;;;;;8.25;55.53;100112.13;4915530;28;20047;-72
2023/10/14 03:51:24;;;;;;;8.38;0.60;;;;;;;8.32;55.41;100108.38;4931117;28;20055;-68
2023/10/14 03:54:08;;;;;;;8.45;0.68;;;;;;;8.26;55.40;100112.06;4917007;28;20114;-68
2023/10/14 03:56:35;;;;;;;5.35;0.40;;;;;;;8.30;55.02;100110.19;4902609;28;20038;-68
2023/10/14 03:59:01;;;;;;;10.70;0.57;;;;;;;8.11;54.95;100118.78;4915678;28;20027;-68
2023/10/14 04:04:26;;;;;;;6.22;0.30;;;;;;;8.29;53.99;100134.50;4931327;28;20039;-70
2023/10/14 04:09:36;;;;;;;4.57;0.40;;;;;;;8.30;53.50;100141.44;4917163;28;20059;-66
2023/10/14 04:12:07;;;;;;;8.05;1.02;;;;;;;8.15;53.79;100148.13;4917082;28;20063;-67
2023/10/14 04:14:36;;;;;;;3.35;0.43;;;;;;;8.26;53.37;100140.69;4928264;28;20071;-65
2023/10/14 04:17:19;;;;;;;8.35;0.85;;;;;;;8.21;53.58;100153.06;4923539;28;20040;-63
2023/10/14 04:19:53;;;;;;;5.20;0.30;;;;;;;8.23;53.60;100156.47;4917504;28;20094;-67
2023/10/14 04:22:31;;;;;;;7.75;0.40;;;;;;;7.98;53.90;100167.03;4914992;28;20070;-67
2023/10/14 04:25:18;;;;;;;5.32;0.38;;;;;;;7.95;54.14;100188.81;4917018;28;20260;-67
2023/10/14 04:30:32;;;;;;;11.10;1.52;;;;;;;8.18;53.16;100188.78;4906213;28;20044;-68
2023/10/14 04:35:31;;;;;;;12.20;0.68;;;;;;;8.45;51.71;100195.47;4913473;28;20040;-68
2023/10/14 04:38:02;;;;;;;3.85;0.20;;;;;;;8.32;52.74;100197.72;4916202;28;20044;-68
2023/10/14 04:42:59;;;;;;;8.23;0.38;;;;;;;8.21;53.35;100199.94;4920085;28;20090;-69
2023/10/14 04:45:31;;;;;;;8.88;0.63;;;;;;;8.23;53.62;100207.69;4942725;28;20067;-69
2023/10/14 04:47:58;;;;;;;7.10;0.30;;;;;;;8.14;54.19;100214.94;4919415;28;20051;-72
2023/10/14 04:50:23;;;;;;;9.25;0.60;;;;;;;7.92;55.07;100208.91;4917571;28;20185;-68
2023/10/14 04:52:49;;;;;;;7.43;0.82;;;;;;;7.98;55.13;100218.22;4921074;28;20039;-70
2023/10/14 05:00:49;;;;;;;8.38;0.85;;;;;;;7.81;55.29;100229.31;4915900;28;20525;-71
2023/10/14 05:03:21;;;;;;;13.07;0.88;;;;;;;7.66;55.62;100238.53;4922077;28;20085;-72
2023/10/14 05:05:50;;;;;;;4.28;0.10;;;;;;;7.76;55.25;100231.22;4934554;28;22983;-71
2023/10/14 05:08:16;;;;;;;10.38;0.47;;;;;;;7.74;55.01;100237.34;4934144;28;20462;-71
2023/10/14 05:10:50;;;;;;;5.00;0.68;;;;;;;7.53;55.25;100248.50;4918240;28;20032;-72
2023/10/14 05:13:19;;;;;;;8.02;0.30;;;;;;;7.43;55.39;100253.22;4921434;28;21248;-73
2023/10/14 05:15:53;;;;;;;7.95;0.68;;;;;;;7.29;55.56;100256.31;4921720;28;20039;-73
2023/10/14 05:18:28;;;;;;;6.25;0.40;;;;;;;7.63;54.95;100259.47;4915578;28;20038;-70
2023/10/14 05:21:02;;;;;;;4.53;0.30;;;;;;;7.71;54.44;100260.00;4918041;28;20036;-71
2023/10/14 05:23:32;;;;;;;6.05;0.25;;;;;;;7.74;54.16;100262.50;4917560;28;20039;-71
2023/10/14 05:25:59;;;;;;;3.85;0.60;;;;;;;7.55;54.33;100262.34;4916236;28;20048;-69
2023/10/14 05:28:29;;;;;;;9.60;0.88;;;;;;;7.58;53.90;100271.78;4932783;28;20126;-69
2023/10/14 05:31:05;;;;;;;11.57;0.95;;;;;;;7.68;53.65;100280.94;4919805;28;20708;-71
2023/10/14 05:33:33;;;;;;;9.60;0.50;;;;;;;7.72;53.42;100279.91;4917010;28;20126;-68
2023/10/14 05:36:03;;;;;;;6.25;0.60;;;;;;;7.72;53.62;100280.75;4917593;28;20521;-69
2023/10/14 05:38:32;;;;;;;5.82;0.93;;;;;;;7.69;53.66;100283.50;4915923;28;20039;-74
2023/10/14 05:40:59;;;;;;;4.75;0.85;;;;;;;7.64;54.13;100292.34;4917358;28;20500;-73
2023/10/14 05:43:26;;;;;;;7.13;0.50;;;;;;;7.46;54.29;100294.69;4917932;28;20502;-72
2023/10/14 05:45:52;;;;;;;9.98;1.27;;;;;;;7.26;54.97;100297.16;4917437;28;20059;-67
2023/10/14 05:48:19;;;;;;;9.00;0.40;;;;;;;7.40;54.46;100312.25;4931743;28;20046;-68
2023/10/14 05:50:44;;;;;;;8.43;0.45;;;;;;;7.46;54.09;100315.50;4912556;28;20039;-70
2023/10/14 05:53:12;;;;;;;9.90;1.48;;;;;;;7.61;53.78;100324.53;4917143;28;20403;-70
2023/10/14 05:55:39;;;;;;;4.68;0.70;;;;;;;7.41;53.72;100326.97;4914204;28;20039;-70
2023/10/14 05:58:06;;;;;;;7.00;1.05;;;;;;;7.53;53.56;100332.59;4914093;28;20035;-69
2023/10/14 06:00:34;;;;;;;9.38;1.02;;;;;;;7.73;52.92;100344.03;4913762;28;20043;-69
2023/10/14 06:03:00;;;;;;;6.85;0.47;;;;;;;7.76;52.97;100345.66;4934656;28;20511;-69
2023/10/14 06:05:31;;;;;;;9.52;1.02;;;;;;;7.68;53.17;100361.56;4918600;28;20514;-72
2023/10/14 06:08:00;;;;;;;8.30;0.33;;;;;;;7.77;52.52;100360.41;4919626;28;20422;-67
2023/10/14 06:10:29;;;;;;;11.38;0.32;;;;;;;7.48;52.85;100365.69;4916890;28;20091;-67
2023/10/14 06:12:56;;;;;;;12.43;0.80;;;;;;;7.91;52.89;100379.81;4926376;28;20557;-68
2023/10/14 06:15:25;;;;;;;8.38;0.52;;;;;;;8.17;52.12;100371.94;4921892;28;20036;-68
2023/10/14 06:17:54;;;;;;;9.32;1.40;;;;;;;8.07;51.86;100380.09;4917524;28;20032;-68
2023/10/14 06:20:21;;;;;;;12.77;1.00;;;;;;;8.34;50.96;100392.97;4917137;28;20158;-67
2023/10/14 06:22:47;;;;;;;12.50;0.60;;;;;;;8.53;50.40;100388.72;4917628;28;20394;-67
2023/10/14 06:25:16;;;;;;;11.10;0.55;;;;;;;8.48;50.14;100408.06;4913560;28;20063;-67
2023/10/14 06:27:45;;;;;;;4.15;0.45;;;;;;;8.63;50.36;100410.06;4914494;28;20078;-67
2023/10/14 06:30:19;;;;;;;11.27;0.77;;;;;;;8.75;49.93;100416.56;4917335;28;20428;-67
2023/10/14 06:35:32;;;;;;;7.63;0.32;;;;;;;8.52;50.53;100428.72;5012329;28;20046;-67
2023/10/14 06:38:03;;;;;;;10.77;0.50;;;;;;;8.45;50.74;100436.81;5029375;28;20042;-67
2023/10/14 06:40:35;;;;;;;8.63;0.45;;;;;;;8.56;50.22;100448.53;4992997;28;20042;-68
2023/10/14 06:43:06;;;;;;;12.05;0.47;;;;;;;8.70;50.27;100457.56;4987178;28;20073;-67
2023/10/14 06:45:32;;;;;;;12.75;0.93;;;;;;;8.88;49.94;100462.09;4984559;28;20401;-67
2023/10/14 06:47:58;;;;;;;5.25;0.60;;;;;;;9.31;49.61;100476.00;4975436;28;20043;-67
2023/10/14 06:50:24;;;;;;;11.25;0.63;;;;;;;9.37;48.92;100483.56;4973335;28;20062;-67
2023/10/14 06:52:53;;;;;;;4.28;0.68;;;;;;;9.59;48.40;100472.25;4974176;28;20444;-68
2023/10/14 06:55:21;;;;;;;4.47;0.43;;;;;;;9.66;49.10;100481.53;4985410;28;20042;-68
2023/10/14 06:57:53;;;;;;;11.30;0.43;;;;;;;9.22;48.24;100481.59;4969904;28;20034;-67
2023/10/14 07:00:26;;;;;;;4.70;0.70;;;;;;;9.90;47.76;100489.22;4971788;28;20351;-67
2023/10/14 07:02:53;;;;;;;9.13;1.13;;;;;;;10.89;45.68;100494.34;5004824;28;20034;-68
2023/10/14 07:05:20;;;;;;;6.82;0.55;;;;;;;11.92;42.92;100501.56;4972366;28;20039;-67
2023/10/14 07:07:48;;;;;;;10.07;0.93;;;;;;;12.42;42.06;100503.28;4969792;28;20060;-67
2023/10/14 07:10:14;;;;;;;7.13;0.40;;;;;;;13.24;39.67;100503.13;4972993;28;20074;-68
2023/10/14 07:12:39;;;;;;;7.45;0.50;;;;;;;13.90;38.89;100499.28;4971699;28;20160;-68
2023/10/14 07:15:12;;;;;;;7.30;1.08;;;;;;;14.53;37.49;100508.63;4971634;28;20517;-68
2023/10/14 07:17:42;;;;;;;6.25;0.90;;;;;;;14.43;37.80;100531.16;5000032;28;20292;-68
2023/10/14 07:20:12;;;;;;;2.15;0.25;;;;;;;11.85;41.92;100537.69;4973650;28;20441;-68
2023/10/14 07:22:42;;;;;;;11.77;1.70;;;;;;;10.00;45.75;100533.16;4969571;28;20033;-67
2023/10/14 07:25:11;;;;;;;8.57;1.30;;;;;;;9.35;48.68;100544.53;4972844;28;20077;-68
2023/10/14 07:27:37;;;;;;;4.55;0.30;;;;;;;8.33;50.25;100550.09;4968414;28;22896;-68
2023/10/14 07:30:15;;;;;;;7.05;0.55;;;;;;;8.44;49.75;100554.94;4974247;28;20104;-68
2023/10/14 07:32:46;;;;;;;4.43;0.38;;;;;;;8.45;49.87;100564.41;4970440;28;20243;-67
2023/10/14 07:35:13;;;;;;;9.82;0.50;;;;;;;8.64;48.89;100568.06;4971509;28;20054;-68
2023/10/14 07:37:42;;;;;;;1.58;0.22;;;;;;;9.34;48.06;100564.56;4968544;28;20744;-68
2023/10/14 07:40:11;;;;;;;5.03;0.25;;;;;;;11.00;43.71;100567.91;4973527;28;20133;-67
2023/10/14 07:42:38;;;;;;;1.83;0.10;;;;;;;12.72;39.07;100571.59;4968166;28;20091;-67
2023/10/14 07:45:05;;;;;;;2.50;0.20;;;;;;;14.04;36.17;100571.19;4968601;28;20612;-68
2023/10/14 07:47:31;;;;;;;2.97;0.10;;;;;;;13.93;36.29;100577.91;4953950;28;20038;-69
2023/10/14 07:49:57;;;;;;;4.75;0.10;;;;;;;12.54;38.10;100586.50;4959410;28;20101;-68
2023/10/14 07:52:23;;;;;;;3.47;0.15;;;;;;;11.09;41.51;100586.72;4959260;28;20501;-68
2023/10/14 07:54:51;;;;;;;3.15;0.10;;;;;;;9.85;42.64;100590.38;4957536;28;20141;-67
2023/10/14 07:57:17;;;;;;;1.17;0.30;;;;;;;9.54;44.36;100589.00;4958102;28;20041;-67
2023/10/14 07:59:43;;;;;;;0.98;0.25;;;;;;;9.97;42.89;100587.28;4956511;28;20521;-67
2023/10/14 08:02:10;;;;;;;0.40;0.10;;;;;;;12.90;39.11;100583.72;4948001;28;20125;-70
2023/10/14 08:04:35;;;;;;;1.80;0.10;;;;;;;14.32;35.92;100587.00;4953784;28;20433;-68
2023/10/14 08:07:05;;;;;;;4.28;0.40;;;;;;;14.04;34.97;100586.97;4959309;28;20034;-68
2023/10/14 08:09:32;;;;;;;4.05;0.47;;;;;;;15.01;34.71;100589.78;4954212;28;20043;-67
2023/10/14 08:11:59;;;;;;;8.75;0.38;;;;;;;15.47;33.60;100591.31;4958699;28;20062;-67
2023/10/14 08:14:24;;;;;;;1.85;0.20;;;;;;;16.17;32.29;100601.59;4964175;28;20047;-68
2023/10/14 08:16:50;;;;;;;3.00;0.10;;;;;;;16.15;32.65;100619.31;4956830;28;20407;-68
2023/10/14 08:19:21;;;;;;;4.35;0.45;;;;;;;14.33;34.22;100628.13;4956708;28;20037;-67
2023/10/14 08:21:50;;;;;;;3.42;0.25;;;;;;;13.18;37.17;100631.19;4957856;28;20042;-67
2023/10/14 08:24:16;;;;;;;3.60;0.10;;;;;;;14.33;35.54;100635.16;4957863;28;20037;-69
2023/10/14 08:26:43;;;;;;;3.67;0.30;;;;;;;14.99;34.16;100633.78;4957991;28;20046;-69
2023/10/14 08:29:12;;;;;;;1.48;0.20;;;;;;;15.15;32.03;100631.91;4957908;28;20050;-67
2023/10/14 08:31:37;;;;;;;2.35;0.22;;;;;;;14.31;32.29;100626.53;4958105;28;20034;-69
2023/10/14 08:34:06;;;;;;;1.60;0.30;;;;;;;15.31;31.01;100633.59;4959696;28;20113;-70
2023/10/14 08:36:32;;;;;;;0.82;0.20;;;;;;;15.09;31.10;100634.91;4973398;28;20505;-69
2023/10/14 08:38:58;;;;;;;5.70;0.17;;;;;;;14.63;32.47;100632.50;4961090;28;20030;-70
2023/10/14 08:41:25;;;;;;;1.15;0.10;;;;;;;14.21;32.38;100642.00;4957908;28;20034;-69
2023/10/14 08:43:56;;;;;;;2.25;0.10;;;;;;;14.35;34.26;100644.66;4955865;28;21493;-69
2023/10/14 08:46:29;;;;;;;1.08;0.20;;;;;;;14.34;34.21;100652.63;4958379;28;20408;-69
2023/10/14 08:49:09;;;;;;;2.53;0.30;;;;;;;13.86;34.01;100660.66;4957713;28;20446;-69
2023/10/14 08:51:37;;;;;;;5.57;0.10;;;;;;;13.79;34.87;100672.47;4957484;28;20105;-69
2023/10/14 08:54:07;;;;;;;4.65;0.25;;;;;;;14.58;34.72;100687.16;4990220;28;20473;-69
2023/10/14 08:56:35;;;;;;;3.42;0.20;;;;;;;13.39;37.29;100679.06;4954160;28;20432;-69
2023/10/14 08:59:01;;;;;;;3.28;0.10;;;;;;;12.23;38.63;100692.91;4956489;28;20057;-69
2023/10/14 09:01:31;;;;;;;4.68;0.20;;;;;;;11.27;40.64;100692.28;4960619;28;20026;-69
2023/10/14 09:03:59;;;;;;;3.42;0.30;;;;;;;11.16;41.50;100690.16;4972545;28;20026;-69
2023/10/14 09:06:27;;;;;;;6.32;0.40;;;;;;;11.34;41.78;100691.91;4957524;28;20034;-69
2023/10/14 09:08:53;;;;;;;3.80;0.30;;;;;;;11.45;41.92;100715.81;4955677;28;20045;-68
2023/10/14 09:11:26;;;;;;;5.22;0.30;;;;;;;11.01;44.20;100726.50;4959266;28;20034;-67
2023/10/14 09:14:05;;;;;;;4.18;0.75;;;;;;;10.09;46.31;100729.53;4956241;28;20034;-67
2023/10/14 09:16:32;;;;;;;6.43;0.47;;;;;;;9.82;47.26;100721.88;4957240;28;20293;-68
2023/10/14 09:19:01;;;;;;;7.55;0.20;;;;;;;9.71;47.83;100730.09;4955103;28;20041;-67
2023/10/14 09:21:31;;;;;;;5.03;0.38;;;;;;;9.82;47.72;100727.09;4988205;28;20075;-70
2023/10/14 09:24:03;;;;;;;2.80;0.43;;;;;;;10.49;47.28;100718.28;4958311;28;20026;-68
2023/10/14 09:26:43;;;;;;;2.05;0.22;;;;;;;10.45;47.10;100731.53;4955878;28;20046;-68
2023/10/14 09:29:09;;;;;;;5.38;0.70;;;;;;;10.52;47.59;100727.75;4958607;28;20038;-68
2023/10/14 09:31:41;;;;;;;5.32;0.77;;;;;;;10.57;48.35;100731.00;4973329;28;20046;-67
2023/10/14 09:34:08;;;;;;;6.03;0.45;;;;;;;10.93;47.36;100743.44;4957445;28;20417;-67
2023/10/14 09:36:42;;;;;;;8.57;0.85;;;;;;;10.04;47.56;100750.59;4956535;28;20043;-68
2023/10/14 09:39:13;;;;;;;8.05;0.60;;;;;;;10.45;48.03;100748.06;4957186;28;20500;-67
2023/10/14 09:41:39;;;;;;;10.70;0.77;;;;;;;11.57;46.97;100744.97;4952746;28;20054;-67
2023/10/14 09:44:06;;;;;;;12.40;0.60;;;;;;;12.18;44.79;100749.94;4958114;28;20535;-69
2023/10/14 09:46:33;;;;;;;10.50;1.20;;;;;;;13.03;44.11;100741.31;4958140;28;20412;-69
2023/10/14 09:49:00;;;;;;;3.47;0.30;;;;;;;13.53;41.97;100743.00;4955164;28;20066;-69
2023/10/14 09:51:27;;;;;;;5.47;1.02;;;;;;;13.43;41.82;100744.44;4956746;28;20086;-69
2023/10/14 09:53:54;;;;;;;10.13;0.85;;;;;;;14.56;41.27;100768.78;4957313;28;20117;-69
2023/10/14 09:56:21;;;;;;;8.82;0.65;;;;;;;13.10;41.33;100776.78;4956279;28;20261;-69
2023/10/14 09:58:47;;;;;;;9.45;0.60;;;;;;;11.67;42.36;100788.13;4983960;28;20564;-70
2023/10/14 10:01:15;;;;;;;4.45;1.00;;;;;;;9.86;46.80;100816.59;4958272;28;20061;-67
2023/10/14 10:03:46;;;;;;;13.38;1.10;;;;;;;9.50;48.44;100799.59;4956084;28;20034;-68
2023/10/14 10:06:35;;;;;;;7.10;0.55;;;;;;;9.65;48.83;100795.56;4957025;28;20085;-69
2023/10/14 10:09:23;;;;;;;10.77;0.55;;;;;;;9.94;49.43;100793.63;4954784;28;21268;-68
2023/10/14 10:11:51;;;;;;;9.65;0.38;;;;;;;11.11;47.87;100786.28;4953165;28;20049;-68
2023/10/14 10:14:19;;;;;;;9.93;0.80;;;;;;;11.72;45.92;100775.66;4958818;28;20267;-67
2023/10/14 10:16:48;;;;;;;8.10;0.55;;;;;;;12.00;44.29;100780.50;4954581;28;20123;-70
2023/10/14 10:19:13;;;;;;;6.25;0.55;;;;;;;12.75;42.30;100777.75;4962605;28;20314;-68
2023/10/14 10:21:43;;;;;;;7.00;0.35;;;;;;;13.23;41.33;100778.78;4983551;28;20128;-69
2023/10/14 10:24:38;;;;;;;6.88;0.47;;;;;;;13.36;41.43;100774.59;4959224;28;20341;-68
2023/10/14 10:27:03;;;;;;;7.70;0.65;;;;;;;13.74;39.67;100776.91;4955816;28;20045;-68
2023/10/14 10:29:33;;;;;;;9.13;0.93;;;;;;;14.10;38.64;100776.66;4960068;28;20057;-69
2023/10/14 10:32:12;;;;;;;3.80;0.28;;;;;;;14.06;39.65;100774.31;4972113;28;20143;-69
2023/10/14 10:35:06;;;;;;;4.68;0.20;;;;;;;14.24;40.52;100820.56;4955102;28;21305;-68
2023/10/14 10:37:51;;;;;;;5.53;0.45;;;;;;;11.52;43.98;100815.00;4957683;28;20775;-67
2023/10/14 10:40:25;;;;;;;6.18;0.38;;;;;;;10.73;45.44;100809.66;4958088;28;20218;-67
2023/10/14 10:43:09;;;;;;;9.25;0.73;;;;;;;10.32;46.19;100796.50;4951204;28;20299;-67
2023/10/14 10:45:40;;;;;;;7.72;0.82;;;;;;;10.85;46.41;100806.56;4956345;28;20529;-67
2023/10/14 10:48:09;;;;;;;4.55;0.45;;;;;;;10.76;46.45;100809.53;4958974;28;20354;-66
2023/10/14 10:50:37;;;;;;;5.90;1.38;;;;;;;10.87;46.75;100815.19;4960679;28;20224;-67
2023/10/14 10:53:05;;;;;;;9.80;1.00;;;;;;;10.39;47.57;100811.88;4953831;28;20038;-67
2023/10/14 10:55:31;;;;;;;6.97;0.50;;;;;;;11.01;47.16;100804.97;4972069;28;20576;-67
2023/10/14 10:58:03;;;;;;;2.30;0.30;;;;;;;11.45;45.27;100810.03;4952470;28;20096;-67
2023/10/14 11:00:32;;;;;;;3.17;0.30;;;;;;;11.62;46.12;100811.91;4957110;28;20137;-67
2023/10/14 11:03:02;;;;;;;1.95;0.30;;;;;;;12.12;45.36;100820.97;4955616;28;20052;-68
2023/10/14 11:05:29;;;;;;;5.78;0.40;;;;;;;12.36;43.95;100807.63;4959053;28;20043;-66
2023/10/14 11:07:57;;;;;;;3.13;0.30;;;;;;;13.48;43.36;100815.91;4983663;28;20041;-69
2023/10/14 11:10:23;;;;;;;7.60;0.77;;;;;;;13.21;41.32;100810.34;4957429;28;20441;-67
2023/10/14 11:12:49;;;;;;;8.07;0.50;;;;;;;12.26;38.78;100818.53;4986039;28;20066;-68
2023/10/14 11:15:22;;;;;;;3.97;0.28;;;;;;;12.76;37.91;100817.03;4973344;28;20669;-67
2023/10/14 11:17:58;;;;;;;7.47;0.40;;;;;;;12.57;37.55;100822.28;4968609;28;20125;-67
2023/10/14 11:20:36;;;;;;;7.78;0.38;;;;;;;12.50;38.51;100820.91;4980763;28;20179;-67
2023/10/14 11:23:09;;;;;;;8.07;0.50;;;;;;;12.19;37.86;100817.13;4956628;28;20069;-69
2023/10/14 11:25:44;;;;;;;10.32;0.43;;;;;;;12.62;37.74;100825.53;4959405;28;20038;-69
2023/10/14 11:28:15;;;;;;;6.50;0.65;;;;;;;12.55;37.96;100828.53;4967138;28;20080;-69
2023/10/14 11:30:42;;;;;;;6.22;0.50;;;;;;;11.64;37.63;100830.13;4958815;28;20253;-69
2023/10/14 11:33:12;;;;;;;7.15;0.80;;;;;;;11.12;38.07;100832.44;4955115;28;20042;-69
2023/10/14 11:35:39;;;;;;;10.15;1.15;;;;;;;11.26;37.30;100819.59;4959092;28;20045;-69
2023/10/14 11:38:12;;;;;;;6.72;0.30;;;;;;;12.10;36.71;100833.28;4960831;28;20394;-69
2023/10/14 11:40:45;;;;;;;5.18;0.50;;;;;;;12.56;35.87;100830.22;4958068;28;20046;-69
2023/10/14 11:43:11;;;;;;;5.72;0.73;;;;;;;12.77;35.82;100838.84;4960333;28;20041;-69
2023/10/14 11:45:43;;;;;;;1.50;0.25;;;;;;;12.10;34.44;100832.44;4959398;28;20265;-68
2023/10/14 11:48:30;;;;;;;6.03;0.63;;;;;;;11.58;34.75;100840.91;4968682;28;20505;-67
2023/10/14 11:51:03;;;;;;;3.53;0.80;;;;;;;11.64;34.79;100851.06;4956169;28;20122;-68
2023/10/14 11:53:32;;;;;;;6.78;0.60;;;;;;;11.46;35.71;100848.38;4975661;28;20031;-68
2023/10/14 11:56:00;;;;;;;6.15;1.05;;;;;;;12.09;35.33;100847.31;4956861;28;20034;-68
2023/10/14 11:58:31;;;;;;;7.30;0.55;;;;;;;12.84;34.36;100850.72;4959503;28;20030;-68
2023/10/14 12:00:58;;;;;;;6.20;0.30;;;;;;;12.87;31.67;100835.69;4958348;28;20378;-68
2023/10/14 12:03:26;;;;;;;6.30;0.52;;;;;;;12.45;33.89;100847.34;4963319;28;20038;-68
2023/10/14 12:05:59;;;;;;;7.72;0.82;;;;;;;12.69;32.93;100841.84;4963961;28;20038;-68
2023/10/14 12:08:26;;;;;;;4.13;0.43;;;;;;;11.80;32.51;100846.91;4958258;28;20030;-68
2023/10/14 12:10:57;;;;;;;7.10;0.68;;;;;;;11.45;33.78;100861.53;4963840;28;20420;-68
2023/10/14 12:13:23;;;;;;;7.72;0.60;;;;;;;11.32;34.26;100862.97;4961023;28;20038;-68
2023/10/14 12:15:52;;;;;;;5.55;0.30;;;;;;;11.91;34.20;100869.97;4954420;28;20117;-68
2023/10/14 12:18:20;;;;;;;6.95;0.50;;;;;;;12.24;33.70;100872.78;4959215;28;20374;-68
2023/10/14 12:20:47;;;;;;;3.17;0.63;;;;;;;12.86;33.70;100896.94;4957308;28;20035;-67
2023/10/14 12:23:20;;;;;;;5.60;1.00;;;;;;;13.11;33.22;100879.97;4957578;28;20134;-68
2023/10/14 12:25:47;;;;;;;2.85;0.40;;;;;;;12.98;32.37;100869.25;4956243;28;20241;-68
2023/10/14 12:28:26;;;;;;;11.63;0.68;;;;;;;12.79;32.58;100871.09;4961480;28;20034;-67
2023/10/14 12:31:02;;;;;;;5.13;0.77;;;;;;;13.04;31.76;100878.59;4955169;28;20414;-67